createdAt,value
2022-10-18T00:00:37.036Z,10.17
2022-10-18T00:03:05.364Z,10.97
2022-10-18T00:05:35.066Z,10.53
2022-10-18T00:08:03.368Z,9.33
2022-10-18T00:10:31.833Z,8.70
2022-10-18T00:13:00.058Z,9.77
2022-10-18T00:15:28.343Z,9.47
2022-10-18T00:17:56.588Z,9.43
2022-10-18T00:20:24.714Z,9.77
2022-10-18T00:22:54.260Z,10.17
2022-10-18T00:25:22.409Z,8.90
2022-10-18T00:27:50.562Z,9.20
2022-10-18T00:30:18.853Z,8.87
2022-10-18T00:32:47.015Z,8.80
2022-10-18T00:35:15.239Z,9.30
2022-10-18T00:37:43.545Z,9.90
2022-10-18T00:40:13.330Z,9.47
2022-10-18T00:42:41.522Z,9.70
2022-10-18T00:45:27.882Z,9.63
2022-10-18T00:48:00.794Z,9.63
2022-10-18T00:50:33.330Z,10.27
2022-10-18T00:53:05.929Z,9.47
2022-10-18T00:55:35.912Z,9.50
2022-10-18T00:58:06.468Z,10.03
2022-10-18T01:00:38.716Z,8.57
2022-10-18T01:03:07.929Z,8.93
2022-10-18T01:05:40.945Z,9.40
2022-10-18T01:08:27.743Z,9.47
2022-10-18T01:11:08.351Z,9.80
2022-10-18T01:13:46.440Z,9.07
2022-10-18T01:16:21.366Z,9.00
2022-10-18T01:18:54.514Z,9.17
2022-10-18T01:21:43.679Z,9.83
2022-10-18T01:24:47.227Z,10.13
2022-10-18T01:27:38.982Z,8.73
2022-10-18T01:30:46.035Z,8.80
2022-10-18T01:33:37.271Z,9.37
2022-10-18T01:36:13.006Z,9.40
2022-10-18T01:38:42.624Z,10.73
2022-10-18T01:41:15.652Z,10.60
2022-10-18T01:43:46.486Z,9.70
2022-10-18T01:46:19.832Z,10.30
2022-10-18T01:48:50.331Z,11.27
2022-10-18T01:51:20.663Z,9.60
2022-10-18T01:53:48.920Z,10.27
2022-10-18T01:56:28.214Z,9.63
2022-10-18T01:59:34.150Z,10.00
2022-10-18T02:02:09.094Z,9.73
2022-10-18T02:04:43.723Z,10.20
2022-10-18T02:07:22.541Z,9.77
2022-10-18T02:10:00.034Z,10.17
2022-10-18T02:12:31.951Z,11.30
2022-10-18T02:15:01.643Z,10.17
2022-10-18T02:17:31.704Z,11.77
2022-10-18T02:20:03.408Z,10.63
2022-10-18T02:22:34.702Z,10.90
2022-10-18T02:25:06.959Z,10.63
2022-10-18T02:27:35.212Z,11.03
2022-10-18T02:30:03.711Z,10.50
2022-10-18T02:32:36.038Z,9.37
2022-10-18T02:35:08.857Z,10.10
2022-10-18T02:37:40.244Z,9.87
2022-10-18T02:40:11.306Z,10.63
2022-10-18T02:42:41.251Z,11.03
2022-10-18T02:45:09.784Z,10.50
2022-10-18T02:47:38.161Z,10.47
2022-10-18T02:50:08.384Z,10.33
2022-10-18T02:52:36.498Z,10.63
2022-10-18T02:55:05.684Z,10.47
2022-10-18T02:57:34.258Z,10.50
2022-10-18T03:00:02.855Z,10.83
2022-10-18T03:02:31.210Z,11.13
2022-10-18T03:04:59.298Z,10.00
2022-10-18T03:07:29.040Z,10.40
2022-10-18T03:09:57.630Z,12.07
2022-10-18T03:12:25.831Z,12.10
2022-10-18T03:14:54.012Z,10.67
2022-10-18T03:17:22.288Z,10.67
2022-10-18T03:19:50.452Z,9.93
2022-10-18T03:22:18.737Z,10.67
2022-10-18T03:24:48.400Z,10.27
2022-10-18T03:27:16.642Z,10.93
2022-10-18T03:29:45.130Z,10.50
2022-10-18T03:32:13.358Z,11.10
2022-10-18T03:34:41.511Z,9.97
2022-10-18T03:37:09.776Z,10.70
2022-10-18T03:39:37.868Z,9.90
2022-10-18T03:42:07.428Z,9.63
2022-10-18T03:44:35.619Z,10.10
2022-10-18T03:47:03.788Z,10.70
2022-10-18T03:52:05.499Z,11.60
2022-10-18T03:54:34.264Z,9.47
2022-10-18T03:57:02.478Z,9.47
2022-10-18T03:59:33.256Z,11.27
2022-10-18T04:02:01.553Z,11.27
2022-10-18T04:04:29.876Z,11.53
2022-10-18T04:06:58.274Z,11.13
2022-10-18T04:09:26.446Z,10.57
2022-10-18T04:11:57.270Z,10.63
2022-10-18T04:14:25.428Z,10.20
2022-10-18T04:16:54.951Z,10.67
2022-10-18T04:19:23.120Z,10.97
2022-10-18T04:21:51.339Z,10.23
2022-10-18T04:24:19.514Z,10.60
2022-10-18T04:26:47.622Z,10.20
2022-10-18T04:29:15.826Z,10.70
2022-10-18T04:31:44.057Z,10.57
2022-10-18T04:34:13.781Z,11.27
2022-10-18T04:36:41.925Z,10.17
2022-10-18T04:39:10.163Z,11.00
2022-10-18T04:41:38.379Z,10.00
2022-10-18T04:44:06.713Z,10.27
2022-10-18T04:46:34.978Z,10.53
2022-10-18T04:49:03.210Z,10.63
2022-10-18T04:51:33.076Z,11.27
2022-10-18T04:54:01.233Z,11.73
2022-10-18T04:56:29.353Z,10.23
2022-10-18T04:58:57.539Z,10.47
2022-10-18T05:01:25.803Z,11.20
2022-10-18T05:03:54.410Z,10.77
2022-10-18T05:06:23.432Z,12.27
2022-10-18T05:08:53.030Z,10.63
2022-10-18T05:11:21.179Z,10.97
2022-10-18T05:13:50.903Z,11.43
2022-10-18T05:16:19.566Z,10.53
2022-10-18T05:18:47.746Z,10.43
2022-10-18T05:21:16.023Z,11.47
2022-10-18T05:23:44.242Z,10.90
2022-10-18T05:26:13.744Z,11.27
2022-10-18T05:28:42.032Z,9.20
2022-10-18T05:31:12.074Z,10.63
2022-10-18T05:33:40.264Z,10.87
2022-10-18T05:36:09.252Z,10.70
2022-10-18T05:38:42.093Z,10.37
2022-10-18T05:41:11.114Z,10.40
2022-10-18T05:43:41.401Z,10.03
2022-10-18T05:46:15.090Z,9.90
2022-10-18T05:48:44.587Z,9.13
2022-10-18T05:51:12.878Z,9.73
2022-10-18T05:53:41.046Z,10.00
2022-10-18T05:56:12.005Z,9.93
2022-10-18T05:58:42.498Z,10.43
2022-10-18T06:01:11.731Z,9.43
2022-10-18T06:03:42.553Z,8.73
2022-10-18T06:06:12.494Z,9.30
2022-10-18T06:08:42.152Z,9.77
2022-10-18T06:11:12.022Z,9.07
2022-10-18T06:13:45.613Z,10.00
2022-10-18T06:16:15.088Z,9.37
2022-10-18T06:18:43.668Z,9.93
2022-10-18T06:21:11.855Z,12.17
2022-10-18T06:23:40.144Z,10.43
2022-10-18T06:26:10.803Z,10.00
2022-10-18T06:28:39.651Z,10.03
2022-10-18T06:31:09.310Z,11.73
2022-10-18T06:33:37.945Z,10.87
2022-10-18T06:36:08.010Z,12.20
2022-10-18T06:38:36.399Z,11.00
2022-10-18T06:41:05.810Z,10.70
2022-10-18T06:43:34.353Z,9.97
2022-10-18T06:46:04.762Z,9.90
2022-10-18T06:48:35.022Z,10.63
2022-10-18T06:51:05.900Z,9.83
2022-10-18T06:53:40.765Z,10.07
2022-10-18T06:56:13.908Z,10.23
2022-10-18T06:58:42.222Z,9.87
2022-10-18T07:01:12.550Z,8.57
2022-10-18T07:03:42.078Z,9.53
2022-10-18T07:06:11.738Z,9.47
2022-10-18T07:08:40.522Z,8.97
2022-10-18T07:11:09.822Z,9.43
2022-10-18T07:13:37.975Z,9.40
2022-10-18T07:16:08.644Z,8.87
2022-10-18T07:18:39.246Z,9.63
2022-10-18T07:21:10.691Z,9.80
2022-10-18T07:23:40.770Z,9.57
2022-10-18T07:26:14.124Z,8.23
2022-10-18T07:28:42.790Z,9.33
2022-10-18T07:31:12.656Z,10.23
2022-10-18T07:33:43.030Z,9.80
2022-10-18T07:36:14.012Z,9.90
2022-10-18T07:38:42.494Z,9.97
2022-10-18T07:41:13.219Z,9.93
2022-10-18T07:43:44.461Z,9.23
2022-10-18T07:46:13.445Z,10.23
2022-10-18T07:48:41.849Z,11.97
2022-10-18T07:51:12.303Z,11.73
2022-10-18T07:53:40.784Z,12.67
2022-10-18T07:56:16.050Z,11.87
2022-10-18T07:58:44.886Z,11.17
2022-10-18T08:01:14.269Z,11.50
2022-10-18T08:03:43.799Z,11.17
2022-10-18T08:06:16.208Z,11.13
2022-10-18T08:08:44.489Z,11.50
2022-10-18T08:11:15.259Z,10.90
2022-10-18T08:13:43.999Z,9.53
2022-10-18T08:16:13.819Z,9.73
2022-10-18T08:18:42.647Z,10.27
2022-10-18T08:21:14.278Z,9.23
2022-10-18T08:23:42.608Z,10.10
2022-10-18T08:26:13.478Z,10.00
2022-10-18T08:28:46.162Z,9.50
2022-10-18T08:31:22.375Z,10.90
2022-10-18T08:33:50.666Z,10.00
2022-10-18T08:36:20.437Z,10.17
2022-10-18T08:38:49.344Z,9.13
2022-10-18T08:41:54.405Z,9.70
2022-10-18T08:44:25.833Z,9.40
2022-10-18T08:46:57.307Z,9.97
2022-10-18T08:49:29.126Z,8.30
2022-10-18T08:52:00.113Z,8.37
2022-10-18T08:54:36.184Z,8.13
2022-10-18T08:57:12.545Z,8.33
2022-10-18T08:59:41.919Z,7.23
2022-10-18T09:02:19.918Z,7.45
2022-10-18T09:04:58.605Z,6.87
2022-10-18T09:07:51.720Z,6.23
2022-10-18T09:10:25.647Z,6.57
2022-10-18T09:13:11.611Z,6.80
2022-10-18T09:15:48.914Z,6.57
2022-10-18T09:18:34.168Z,5.72
2022-10-18T09:21:09.639Z,6.40
2022-10-18T09:23:47.612Z,6.27
2022-10-18T09:26:19.078Z,5.30
2022-10-18T09:29:02.566Z,5.87
2022-10-18T09:31:43.085Z,6.13
2022-10-18T09:34:16.129Z,5.60
2022-10-18T09:36:46.328Z,5.18
2022-10-18T09:39:19.674Z,4.68
2022-10-18T09:41:52.099Z,3.25
2022-10-18T09:44:23.802Z,3.60
2022-10-18T09:46:57.826Z,4.15
2022-10-18T09:49:30.609Z,4.00
2022-10-18T09:52:02.220Z,3.75
2022-10-18T09:54:35.955Z,4.80
2022-10-18T09:57:07.759Z,4.63
2022-10-18T09:59:39.427Z,4.65
2022-10-18T10:02:12.887Z,5.30
2022-10-18T10:04:41.195Z,6.85
2022-10-18T10:07:13.121Z,6.22
2022-10-18T10:09:47.067Z,7.03
2022-10-18T10:12:30.008Z,6.68
2022-10-18T10:15:10.625Z,9.23
2022-10-18T10:17:39.152Z,8.60
2022-10-18T10:20:19.207Z,9.07
2022-10-18T10:22:48.769Z,8.25
2022-10-18T10:25:32.006Z,9.43
2022-10-18T10:28:05.109Z,8.70
2022-10-18T10:30:35.189Z,9.13
2022-10-18T10:33:03.754Z,10.15
2022-10-18T10:35:52.531Z,8.43
2022-10-18T10:38:26.178Z,10.15
2022-10-18T10:40:55.915Z,9.90
2022-10-18T10:43:42.020Z,9.55
2022-10-18T10:46:12.589Z,10.50
2022-10-18T10:48:48.077Z,10.15
2022-10-18T10:51:19.264Z,9.80
2022-10-18T10:53:52.259Z,9.98
2022-10-18T10:56:26.315Z,9.23
2022-10-18T10:58:56.613Z,7.18
2022-10-18T11:01:28.460Z,8.30
2022-10-18T11:03:59.370Z,7.38
2022-10-18T11:06:40.529Z,7.35
2022-10-18T11:09:28.603Z,6.90
2022-10-18T11:12:04.730Z,6.10
2022-10-18T11:14:39.933Z,5.63
2022-10-18T11:17:15.883Z,6.13
2022-10-18T11:20:01.340Z,5.40
2022-10-18T11:22:40.716Z,6.20
2022-10-18T11:25:15.292Z,4.63
2022-10-18T11:27:55.225Z,5.47
2022-10-18T11:30:45.184Z,6.25
2022-10-18T11:33:33.726Z,5.03
2022-10-18T11:36:16.492Z,6.40
2022-10-18T11:38:51.756Z,5.07
2022-10-18T11:41:32.744Z,5.03
2022-10-18T11:44:04.442Z,5.30
2022-10-18T11:46:46.674Z,4.97
2022-10-18T11:49:28.420Z,5.38
2022-10-18T11:52:08.637Z,4.30
2022-10-18T11:54:56.404Z,4.45
2022-10-18T11:57:38.415Z,4.25
2022-10-18T12:00:20.225Z,4.32
2022-10-18T12:03:03.247Z,4.40
2022-10-18T12:05:33.834Z,4.85
2022-10-18T12:08:06.390Z,4.20
2022-10-18T12:10:52.830Z,3.80
2022-10-18T12:13:31.609Z,3.78
2022-10-18T12:16:03.351Z,6.13
2022-10-18T12:18:32.932Z,6.18
2022-10-18T12:21:02.122Z,5.28
2022-10-18T12:23:40.002Z,4.80
2022-10-18T12:26:10.720Z,3.78
2022-10-18T12:28:48.284Z,4.13
2022-10-18T12:31:23.482Z,3.10
2022-10-18T12:33:55.652Z,2.90
2022-10-18T12:36:42.268Z,3.25
2022-10-18T12:39:21.560Z,4.13
2022-10-18T12:41:58.250Z,3.40
2022-10-18T12:44:32.128Z,3.47
2022-10-18T12:47:03.762Z,3.10
2022-10-18T12:49:34.377Z,3.40
2022-10-18T12:52:07.048Z,3.92
2022-10-18T12:54:37.430Z,3.63
2022-10-18T12:57:07.330Z,2.95
2022-10-18T12:59:44.979Z,3.10
2022-10-18T13:02:29.907Z,2.60
2022-10-18T13:05:00.592Z,2.92
2022-10-18T13:07:43.329Z,2.40
2022-10-18T13:10:36.987Z,2.38
2022-10-18T13:13:40.840Z,2.20
2022-10-18T13:16:30.512Z,2.55
2022-10-18T13:19:11.514Z,2.22
2022-10-18T13:21:48.840Z,2.63
2022-10-18T13:24:26.192Z,2.17
2022-10-18T13:27:34.567Z,2.45
2022-10-18T13:30:31.385Z,2.10
2022-10-18T13:33:16.673Z,1.98
2022-10-18T13:35:55.528Z,2.38
2022-10-18T13:38:43.778Z,2.10
2022-10-18T13:41:14.420Z,1.90
2022-10-18T13:43:57.139Z,1.60
2022-10-18T13:46:26.732Z,1.75
2022-10-18T13:48:56.229Z,2.05
2022-10-18T13:51:36.763Z,1.55
2022-10-18T13:54:22.919Z,2.10
2022-10-18T13:57:07.091Z,1.50
2022-10-18T13:59:48.142Z,2.10
2022-10-18T14:02:51.103Z,2.00
2022-10-18T14:05:53.155Z,1.92
2022-10-18T14:08:29.246Z,1.95
2022-10-18T14:11:05.103Z,1.88
2022-10-18T14:13:43.027Z,1.63
2022-10-18T14:16:30.489Z,1.92
2022-10-18T14:19:07.919Z,1.88
2022-10-18T14:21:40.616Z,1.23
2022-10-18T14:24:20.977Z,1.63
2022-10-18T14:26:49.340Z,1.98
2022-10-18T14:29:20.289Z,1.83
2022-10-18T14:31:55.077Z,1.83
2022-10-18T14:34:23.391Z,2.22
2022-10-18T14:36:52.654Z,1.60
2022-10-18T14:39:27.536Z,1.80
2022-10-18T14:41:57.807Z,1.95
2022-10-18T14:44:28.045Z,1.95
2022-10-18T14:47:01.489Z,1.70
2022-10-18T14:49:30.749Z,1.73
2022-10-18T14:52:01.125Z,1.50
2022-10-18T14:54:34.088Z,1.65
2022-10-18T14:57:04.399Z,1.60
2022-10-18T14:59:43.100Z,1.98
2022-10-18T15:02:17.991Z,1.58
2022-10-18T15:04:49.123Z,1.60
2022-10-18T15:07:18.829Z,1.85
2022-10-18T15:09:49.355Z,1.48
2022-10-18T15:12:18.932Z,1.60
2022-10-18T15:14:48.919Z,1.80
2022-10-18T15:17:23.596Z,1.50
2022-10-18T15:20:00.459Z,1.67
2022-10-18T15:22:33.284Z,1.75
2022-10-18T15:25:14.582Z,1.50
2022-10-18T15:27:45.701Z,1.73
2022-10-18T15:30:20.010Z,1.80
2022-10-18T15:32:50.802Z,1.80
2022-10-18T15:35:25.893Z,1.80
2022-10-18T15:37:56.127Z,1.92
2022-10-18T15:40:35.081Z,1.58
2022-10-18T15:43:06.863Z,1.92
2022-10-18T15:45:38.042Z,1.60
2022-10-18T15:48:26.160Z,1.50
2022-10-18T15:50:56.419Z,1.63
2022-10-18T15:53:45.847Z,1.60
2022-10-18T15:56:29.296Z,1.80
2022-10-18T15:58:58.915Z,1.65
2022-10-18T16:01:43.831Z,1.52
2022-10-18T16:04:19.809Z,1.70
2022-10-18T16:06:48.031Z,1.85
2022-10-18T16:09:19.175Z,1.60
2022-10-18T16:11:55.573Z,2.10
2022-10-18T16:14:26.029Z,1.75
2022-10-18T16:17:02.344Z,1.63
2022-10-18T16:19:30.927Z,2.03
2022-10-18T16:22:05.200Z,2.05
2022-10-18T16:24:34.440Z,1.53
2022-10-18T16:27:04.092Z,1.95
2022-10-18T16:29:33.134Z,1.55
2022-10-18T16:32:01.637Z,1.67
2022-10-18T16:34:32.135Z,1.80
2022-10-18T16:37:00.473Z,1.90
2022-10-18T16:39:30.007Z,1.70
2022-10-18T16:41:58.314Z,2.13
2022-10-18T16:44:28.019Z,1.90
2022-10-18T16:46:56.454Z,2.20
2022-10-18T16:49:27.405Z,1.90
2022-10-18T16:51:56.169Z,2.67
2022-10-18T16:54:24.596Z,2.00
2022-10-18T16:56:52.930Z,2.20
2022-10-18T16:59:26.718Z,1.90
2022-10-18T17:01:56.650Z,1.97
2022-10-18T17:04:24.947Z,1.90
2022-10-18T17:06:55.473Z,1.80
2022-10-18T17:09:26.029Z,2.07
2022-10-18T17:11:54.256Z,1.80
2022-10-18T17:14:22.474Z,3.83
2022-10-18T17:16:54.675Z,3.93
2022-10-18T17:19:27.161Z,2.80
2022-10-18T17:21:58.873Z,2.20
2022-10-18T17:24:29.860Z,2.33
2022-10-18T17:26:58.053Z,2.00
2022-10-18T17:29:26.330Z,2.47
2022-10-18T17:31:54.548Z,1.80
2022-10-18T17:34:22.798Z,2.20
2022-10-18T17:36:52.422Z,2.27
2022-10-18T17:39:20.604Z,2.10
2022-10-18T17:41:48.770Z,1.97
2022-10-18T17:44:17.131Z,2.40
2022-10-18T17:46:45.350Z,1.90
2022-10-18T17:49:14.157Z,1.60
2022-10-18T17:51:42.867Z,1.90
2022-10-18T17:54:12.760Z,1.80
2022-10-18T17:56:41.460Z,1.70
2022-10-18T17:59:10.192Z,1.70
2022-10-18T18:01:38.625Z,2.00
2022-10-18T18:04:07.316Z,2.23
2022-10-18T18:06:39.009Z,2.13
2022-10-18T18:09:09.153Z,3.03
2022-10-18T18:11:40.295Z,3.83
2022-10-18T18:14:09.682Z,3.00
2022-10-18T18:16:39.000Z,3.53
2022-10-18T18:19:09.866Z,2.77
2022-10-18T18:21:38.874Z,2.90
2022-10-18T18:24:07.785Z,2.57
2022-10-18T18:26:38.777Z,2.30
2022-10-18T18:29:07.437Z,2.40
2022-10-18T18:31:40.141Z,2.33
2022-10-18T18:34:11.503Z,2.67
2022-10-18T18:36:40.032Z,2.80
2022-10-18T18:39:09.027Z,3.10
2022-10-18T18:41:38.798Z,2.50
2022-10-18T18:44:07.363Z,1.87
2022-10-18T18:46:38.842Z,2.60
2022-10-18T18:49:08.372Z,2.70
2022-10-18T18:51:39.658Z,1.80
2022-10-18T18:54:08.451Z,2.40
2022-10-18T18:56:38.288Z,2.40
2022-10-18T18:59:07.114Z,2.67
2022-10-18T19:01:38.732Z,2.47
2022-10-18T19:04:09.056Z,2.60
2022-10-18T19:06:39.811Z,2.30
2022-10-18T19:09:13.467Z,2.57
2022-10-18T19:11:43.144Z,2.67
2022-10-18T19:14:11.475Z,4.73
2022-10-18T19:16:41.514Z,4.47
2022-10-18T19:19:13.203Z,4.87
2022-10-18T19:21:44.325Z,6.47
2022-10-18T19:24:13.412Z,3.67
2022-10-18T19:26:45.452Z,2.90
2022-10-18T19:29:15.551Z,3.10
2022-10-18T19:31:44.747Z,3.40
2022-10-18T19:34:14.589Z,3.60
2022-10-18T19:36:44.119Z,3.10
2022-10-18T19:39:19.136Z,3.20
2022-10-18T19:41:50.693Z,3.20
2022-10-18T19:44:20.148Z,2.40
2022-10-18T19:46:49.189Z,3.37
2022-10-18T19:49:18.024Z,2.77
2022-10-18T19:51:46.856Z,2.80
2022-10-18T19:54:16.563Z,3.30
2022-10-18T19:56:45.001Z,2.90
2022-10-18T19:59:16.445Z,3.20
2022-10-18T20:01:46.194Z,3.20
2022-10-18T20:04:15.354Z,2.97
2022-10-18T20:06:44.224Z,3.20
2022-10-18T20:09:17.666Z,3.30
2022-10-18T20:11:48.964Z,2.70
2022-10-18T20:14:18.677Z,3.27
2022-10-18T20:16:46.982Z,2.70
2022-10-18T20:19:15.436Z,3.10
2022-10-18T20:21:43.792Z,3.00
2022-10-18T20:24:12.677Z,2.83
2022-10-18T20:26:41.215Z,3.07
2022-10-18T20:29:09.863Z,2.80
2022-10-18T20:31:39.633Z,3.33
2022-10-18T20:34:14.710Z,2.97
2022-10-18T20:36:43.040Z,3.20
2022-10-18T20:39:11.316Z,3.53
2022-10-18T20:41:41.898Z,3.50
2022-10-18T20:44:14.634Z,2.60
2022-10-18T20:46:47.429Z,3.33
2022-10-18T20:49:17.175Z,3.43
2022-10-18T20:51:45.593Z,2.90
2022-10-18T20:54:14.775Z,3.50
2022-10-18T20:56:43.346Z,3.07
2022-10-18T20:59:11.611Z,2.73
2022-10-18T21:01:40.313Z,2.53
2022-10-18T21:04:11.204Z,2.53
2022-10-18T21:06:41.329Z,2.67
2022-10-18T21:09:12.995Z,3.47
2022-10-18T21:11:42.500Z,2.63
2022-10-18T21:14:13.718Z,2.60
2022-10-18T21:16:42.895Z,3.03
2022-10-18T21:19:14.877Z,2.83
2022-10-18T21:21:44.935Z,3.13
2022-10-18T21:24:14.383Z,2.67
2022-10-18T21:26:42.560Z,2.90
2022-10-18T21:29:12.297Z,2.90
2022-10-18T21:31:42.612Z,3.27
2022-10-18T21:34:15.250Z,3.03
2022-10-18T21:36:44.986Z,3.20
2022-10-18T21:39:15.115Z,2.90
2022-10-18T21:41:43.798Z,2.97
2022-10-18T21:44:12.328Z,3.50
2022-10-18T21:46:42.918Z,3.30
2022-10-18T21:49:12.800Z,3.00
2022-10-18T21:51:41.595Z,3.63
2022-10-18T21:54:13.483Z,2.90
2022-10-18T21:56:41.822Z,3.10
2022-10-18T21:59:12.048Z,3.40
2022-10-18T22:01:41.229Z,3.00
2022-10-18T22:04:21.092Z,2.70
2022-10-18T22:06:49.803Z,2.60
2022-10-18T22:09:18.075Z,3.30
2022-10-18T22:11:50.610Z,2.80
2022-10-18T22:14:18.829Z,2.77
2022-10-18T22:16:47.020Z,3.07
2022-10-18T22:19:15.192Z,3.30
2022-10-18T22:21:44.712Z,3.23
2022-10-18T22:24:12.925Z,2.90
2022-10-18T22:26:43.600Z,3.33
2022-10-18T22:29:14.054Z,3.03
2022-10-18T22:31:44.433Z,3.10
2022-10-18T22:34:14.504Z,3.57
2022-10-18T22:36:44.421Z,2.90
2022-10-18T22:39:14.423Z,3.30
2022-10-18T22:41:43.483Z,3.13
2022-10-18T22:44:13.273Z,3.07
2022-10-18T22:46:41.819Z,2.73
2022-10-18T22:49:10.169Z,2.67
2022-10-18T22:51:38.453Z,2.87
2022-10-18T22:54:08.134Z,3.30
2022-10-18T22:56:37.121Z,2.60
2022-10-18T22:59:05.352Z,2.83
2022-10-18T23:01:35.663Z,3.03
2022-10-18T23:04:05.056Z,2.80
2022-10-18T23:06:35.200Z,3.03
2022-10-18T23:09:06.082Z,2.77
2022-10-18T23:11:36.918Z,2.57
2022-10-18T23:14:06.866Z,2.87
2022-10-18T23:16:35.181Z,3.23
2022-10-18T23:19:03.711Z,3.30
2022-10-18T23:21:31.983Z,2.83
2022-10-18T23:24:00.382Z,2.73
2022-10-18T23:26:29.197Z,2.97
2022-10-18T23:28:58.814Z,2.90
2022-10-18T23:31:29.884Z,2.53
2022-10-18T23:34:01.345Z,2.53
2022-10-18T23:36:30.173Z,3.20
2022-10-18T23:38:58.658Z,3.33
2022-10-18T23:41:27.404Z,3.10
2022-10-18T23:43:56.129Z,2.90
2022-10-18T23:46:27.851Z,2.70
2022-10-18T23:48:56.048Z,3.30
2022-10-18T23:51:24.169Z,2.90
2022-10-18T23:53:52.431Z,3.20
2022-10-18T23:56:20.579Z,3.40
2022-10-18T23:58:48.681Z,3.00
